createdAt,value
2023-03-21T00:02:01.520Z,6.04
2023-03-21T00:04:44.501Z,6.04
2023-03-21T00:07:21.080Z,6.06
2023-03-21T00:09:52.425Z,6.06
2023-03-21T00:12:21.893Z,6.07
2023-03-21T00:14:54.225Z,6.07
2023-03-21T00:17:25.517Z,6.08
2023-03-21T00:19:55.328Z,6.15
2023-03-21T00:22:26.465Z,6.17
2023-03-21T00:24:55.908Z,6.16
2023-03-21T00:27:50.106Z,6.18
2023-03-21T00:30:16.792Z,6.22
2023-03-21T00:32:55.382Z,6.20
2023-03-21T00:35:57.539Z,6.20
2023-03-21T00:38:16.649Z,6.20
2023-03-21T00:40:49.209Z,6.19
2023-03-21T00:43:23.555Z,6.18
2023-03-21T00:45:51.881Z,6.15
2023-03-21T00:48:19.795Z,6.15
2023-03-21T00:50:48.290Z,6.13
2023-03-21T00:53:16.648Z,6.14
2023-03-21T00:55:45.360Z,6.15
2023-03-21T00:58:13.146Z,6.16
2023-03-21T01:00:41.620Z,6.13
2023-03-21T01:03:24.545Z,6.11
2023-03-21T01:06:05.766Z,6.08
2023-03-21T01:08:52.224Z,6.08
2023-03-21T01:11:28.827Z,6.08
2023-03-21T01:14:14.819Z,6.06
2023-03-21T01:16:49.759Z,6.07
2023-03-21T01:19:29.178Z,6.06
2023-03-21T01:22:03.369Z,6.04
2023-03-21T01:24:35.573Z,6.00
2023-03-21T01:27:05.053Z,6.03
2023-03-21T01:29:33.313Z,6.04
2023-03-21T01:32:01.828Z,6.04
2023-03-21T01:34:30.302Z,6.04
2023-03-21T01:36:58.750Z,6.02
2023-03-21T01:39:27.955Z,6.01
2023-03-21T01:41:55.205Z,6.05
2023-03-21T01:44:23.661Z,6.23
2023-03-21T01:47:09.847Z,6.27
2023-03-21T01:49:49.834Z,6.20
2023-03-21T01:52:39.699Z,6.14
2023-03-21T01:55:16.236Z,6.44
2023-03-21T01:58:05.248Z,6.37
2023-03-21T02:00:38.452Z,6.31
2023-03-21T02:03:26.324Z,6.27
2023-03-21T02:06:19.237Z,6.20
2023-03-21T02:08:48.823Z,6.21
2023-03-21T02:11:19.300Z,6.21
2023-03-21T02:13:50.201Z,6.19
2023-03-21T02:17:12.745Z,6.14
2023-03-21T02:20:22.106Z,6.15
2023-03-21T02:23:43.347Z,6.09
2023-03-21T02:27:06.701Z,6.07
2023-03-21T02:30:42.644Z,6.05
2023-03-21T02:33:39.940Z,6.02
2023-03-21T02:36:52.157Z,6.08
2023-03-21T02:39:38.734Z,6.04
2023-03-21T02:43:01.008Z,6.03
2023-03-21T02:46:03.912Z,5.94
2023-03-21T02:48:52.363Z,5.91
2023-03-21T02:51:30.401Z,5.90
2023-03-21T02:54:32.337Z,5.87
2023-03-21T02:57:09.702Z,5.88
2023-03-21T02:59:53.271Z,5.91
2023-03-21T03:02:30.948Z,5.91
2023-03-21T03:05:02.874Z,5.93
2023-03-21T03:08:11.740Z,5.85
2023-03-21T03:11:07.743Z,5.91
2023-03-21T03:13:58.160Z,5.92
2023-03-21T03:16:37.032Z,5.85
2023-03-21T03:19:36.659Z,5.81
2023-03-21T03:23:07.071Z,5.77
2023-03-21T03:26:12.937Z,5.76
2023-03-21T03:28:53.729Z,5.75
2023-03-21T03:31:47.501Z,5.76
2023-03-21T03:34:26.792Z,5.76
2023-03-21T03:37:04.597Z,5.75
2023-03-21T03:39:51.467Z,5.76
2023-03-21T03:42:58.886Z,5.74
2023-03-21T03:45:50.069Z,5.72
2023-03-21T03:48:35.195Z,5.75
2023-03-21T03:51:23.994Z,5.79
2023-03-21T03:54:08.989Z,5.74
2023-03-21T03:56:40.772Z,5.72
2023-03-21T03:59:11.329Z,5.70
2023-03-21T04:01:41.617Z,5.66
2023-03-21T04:04:13.867Z,5.66
2023-03-21T04:06:51.716Z,5.66
2023-03-21T04:09:34.066Z,5.67
2023-03-21T04:12:17.280Z,5.67
2023-03-21T04:14:47.613Z,5.67
2023-03-21T04:17:19.380Z,5.67
2023-03-21T04:19:53.802Z,5.62
2023-03-21T04:22:28.238Z,5.63
2023-03-21T04:25:00.505Z,5.59
2023-03-21T04:27:30.486Z,5.61
2023-03-21T04:29:58.366Z,5.60
2023-03-21T04:32:28.186Z,5.62
2023-03-21T04:34:58.352Z,5.64
2023-03-21T04:37:28.406Z,5.63
2023-03-21T04:39:58.441Z,5.65
2023-03-21T04:42:28.569Z,5.62
2023-03-21T04:44:58.681Z,5.64
2023-03-21T04:47:29.287Z,5.65
2023-03-21T04:49:59.516Z,5.62
2023-03-21T04:52:29.625Z,5.61
2023-03-21T04:54:59.804Z,5.61
2023-03-21T04:57:29.953Z,5.59
2023-03-21T05:00:00.017Z,5.56
2023-03-21T05:02:30.094Z,5.56
2023-03-21T05:05:00.180Z,5.55
2023-03-21T05:07:31.392Z,5.55
2023-03-21T05:10:02.692Z,5.55
2023-03-21T05:12:33.173Z,5.57
2023-03-21T05:15:05.592Z,5.60
2023-03-21T05:17:35.697Z,5.61
2023-03-21T05:20:09.380Z,5.62
2023-03-21T05:22:40.993Z,5.60
2023-03-21T05:25:12.447Z,5.59
2023-03-21T05:27:45.401Z,5.61
2023-03-21T05:30:18.578Z,5.64
2023-03-21T05:32:48.641Z,5.66
2023-03-21T05:35:18.803Z,5.64
2023-03-21T05:37:48.882Z,5.61
2023-03-21T05:40:19.833Z,5.61
2023-03-21T05:42:50.001Z,5.64
2023-03-21T05:45:20.668Z,5.64
2023-03-21T05:47:50.804Z,5.64
2023-03-21T05:50:21.030Z,5.64
2023-03-21T05:52:51.224Z,5.68
2023-03-21T05:55:21.288Z,5.69
2023-03-21T05:57:51.354Z,5.78
2023-03-21T06:00:24.363Z,5.83
2023-03-21T06:02:54.965Z,5.91
2023-03-21T06:05:25.495Z,5.92
2023-03-21T06:07:55.631Z,5.91
2023-03-21T06:10:25.706Z,5.97
2023-03-21T06:12:55.898Z,5.97
2023-03-21T06:15:26.858Z,5.94
2023-03-21T06:17:56.966Z,5.90
2023-03-21T06:20:27.082Z,5.88
2023-03-21T06:22:57.224Z,5.99
2023-03-21T06:25:27.807Z,6.04
2023-03-21T06:27:57.917Z,6.09
2023-03-21T06:30:27.965Z,6.16
2023-03-21T06:32:58.009Z,6.27
2023-03-21T06:35:28.086Z,6.40
2023-03-21T06:37:59.125Z,6.34
2023-03-21T06:40:29.160Z,6.34
2023-03-21T06:42:59.225Z,6.44
2023-03-21T06:45:29.296Z,6.35
2023-03-21T06:47:59.380Z,6.40
2023-03-21T06:50:29.579Z,6.35
2023-03-21T06:52:59.931Z,6.38
2023-03-21T06:55:30.305Z,6.53
2023-03-21T06:58:00.390Z,6.53
2023-03-21T07:00:30.819Z,6.50
2023-03-21T07:03:01.896Z,6.49
2023-03-21T07:05:32.063Z,6.62
2023-03-21T07:08:02.825Z,6.52
2023-03-21T07:10:33.138Z,6.56
2023-03-21T07:13:03.277Z,6.55
2023-03-21T07:15:33.370Z,6.47
2023-03-21T07:18:03.069Z,6.48
2023-03-21T07:20:31.674Z,6.40
2023-03-21T07:23:00.969Z,6.46
2023-03-21T07:25:30.941Z,6.46
2023-03-21T07:27:59.227Z,6.52
2023-03-21T07:30:28.118Z,6.74
2023-03-21T07:32:55.999Z,6.71
2023-03-21T07:35:24.494Z,6.73
2023-03-21T07:37:52.927Z,6.71
2023-03-21T07:40:21.510Z,6.78
2023-03-21T07:42:53.320Z,6.70
2023-03-21T07:45:25.502Z,6.81
2023-03-21T07:47:55.650Z,6.81
2023-03-21T07:50:25.822Z,6.86
2023-03-21T07:52:56.220Z,7.08
2023-03-21T07:55:26.360Z,6.92
2023-03-21T07:57:56.524Z,7.11
2023-03-21T08:00:27.089Z,7.14
2023-03-21T08:02:59.721Z,7.31
2023-03-21T08:05:40.844Z,6.95
2023-03-21T08:08:11.332Z,6.96
2023-03-21T08:10:39.896Z,7.06
2023-03-21T08:13:08.062Z,7.18
2023-03-21T08:15:37.698Z,7.07
2023-03-21T08:18:08.942Z,7.02
2023-03-21T08:20:36.627Z,7.11
2023-03-21T08:23:05.173Z,7.23
2023-03-21T08:25:33.351Z,7.23
2023-03-21T08:28:01.613Z,7.27
2023-03-21T08:30:30.218Z,7.20
2023-03-21T08:33:01.552Z,7.36
2023-03-21T08:35:32.213Z,7.48
2023-03-21T08:38:07.366Z,7.58
2023-03-21T08:40:37.574Z,7.61
2023-03-21T08:43:07.852Z,7.73
2023-03-21T08:45:38.249Z,7.71
2023-03-21T08:48:08.533Z,7.85
2023-03-21T08:50:38.747Z,7.96
2023-03-21T08:53:08.830Z,8.00
2023-03-21T08:55:39.775Z,7.85
2023-03-21T08:58:09.963Z,8.05
2023-03-21T09:00:40.019Z,8.38
2023-03-21T09:03:11.731Z,8.36
2023-03-21T09:05:41.921Z,8.36
2023-03-21T09:08:13.262Z,8.40
2023-03-21T09:10:43.391Z,8.58
2023-03-21T09:13:13.424Z,8.56
2023-03-21T09:15:43.508Z,8.74
2023-03-21T09:18:15.142Z,8.72
2023-03-21T09:20:47.433Z,9.00
2023-03-21T09:23:18.353Z,8.70
2023-03-21T09:25:48.559Z,8.58
2023-03-21T09:28:18.712Z,8.77
2023-03-21T09:30:48.907Z,9.09
2023-03-21T09:33:25.778Z,9.25
2023-03-21T09:35:58.551Z,9.37
2023-03-21T09:38:30.670Z,9.55
2023-03-21T09:41:32.700Z,9.75
2023-03-21T09:44:39.582Z,9.52
2023-03-21T09:47:37.787Z,9.16
2023-03-21T09:50:31.717Z,9.36
2023-03-21T09:53:23.844Z,9.36
2023-03-21T09:55:56.478Z,9.28
2023-03-21T09:58:53.255Z,9.21
2023-03-21T10:01:41.828Z,9.29
2023-03-21T10:04:19.031Z,9.16
2023-03-21T10:07:02.248Z,9.19
2023-03-21T10:09:34.843Z,9.24
2023-03-21T10:12:22.034Z,9.46
2023-03-21T10:15:00.919Z,9.11
2023-03-21T10:17:46.580Z,9.12
2023-03-21T10:20:32.153Z,9.34
2023-03-21T10:23:12.856Z,9.63
2023-03-21T10:26:02.212Z,9.79
2023-03-21T10:28:52.481Z,9.77
2023-03-21T10:31:29.992Z,9.62
2023-03-21T10:34:31.276Z,9.48
2023-03-21T10:37:05.529Z,9.54
2023-03-21T10:39:50.364Z,9.59
2023-03-21T10:42:35.634Z,9.82
2023-03-21T10:45:20.182Z,10.01
2023-03-21T10:47:52.634Z,10.15
2023-03-21T10:50:25.709Z,10.07
2023-03-21T10:53:00.923Z,9.96
2023-03-21T10:55:42.418Z,10.01
2023-03-21T10:58:27.439Z,9.76
2023-03-21T11:01:07.645Z,9.98
2023-03-21T11:03:43.780Z,10.28
2023-03-21T11:06:22.380Z,10.33
2023-03-21T11:09:23.236Z,10.77
2023-03-21T11:12:17.810Z,10.82
2023-03-21T11:14:51.247Z,10.65
2023-03-21T11:17:28.419Z,10.79
2023-03-21T11:20:09.095Z,11.03
2023-03-21T11:22:46.491Z,10.64
2023-03-21T11:25:39.201Z,10.85
2023-03-21T11:28:21.180Z,10.82
2023-03-21T11:30:59.708Z,11.00
2023-03-21T11:33:47.768Z,11.07
2023-03-21T11:36:20.923Z,11.09
2023-03-21T11:39:28.467Z,11.24
2023-03-21T11:41:58.736Z,11.18
2023-03-21T11:44:44.584Z,11.19
2023-03-21T11:47:14.728Z,11.03
2023-03-21T11:49:44.838Z,11.19
2023-03-21T11:52:43.740Z,11.09
2023-03-21T11:55:57.875Z,11.10
2023-03-21T11:59:18.318Z,11.29
2023-03-21T12:02:12.492Z,11.85
2023-03-21T12:05:21.736Z,12.00
2023-03-21T12:08:21.481Z,12.02
2023-03-21T12:11:01.426Z,12.04
2023-03-21T12:14:09.996Z,12.02
2023-03-21T12:17:25.099Z,11.78
2023-03-21T12:21:07.448Z,12.16
2023-03-21T12:24:38.497Z,12.02
2023-03-21T12:28:16.919Z,12.09
2023-03-21T12:31:32.169Z,11.87
2023-03-21T12:34:50.685Z,11.60
2023-03-21T12:37:58.027Z,11.85
2023-03-21T12:40:40.955Z,12.01
2023-03-21T12:43:33.757Z,11.98
2023-03-21T12:46:20.820Z,12.11
2023-03-21T12:49:09.982Z,12.25
2023-03-21T12:51:51.215Z,12.08
2023-03-21T12:54:41.840Z,12.04
2023-03-21T12:57:40.137Z,11.68
2023-03-21T13:00:41.287Z,11.67
2023-03-21T13:03:51.594Z,11.51
2023-03-21T13:06:27.937Z,11.63
2023-03-21T13:09:10.542Z,11.50
2023-03-21T13:11:41.217Z,11.55
2023-03-21T13:15:25.799Z,11.54
2023-03-21T13:18:23.134Z,11.37
2023-03-21T13:21:15.060Z,11.30
2023-03-21T13:24:18.273Z,11.32
2023-03-21T13:27:30.376Z,11.46
2023-03-21T13:30:26.421Z,11.86
2023-03-21T13:33:34.708Z,11.78
2023-03-21T13:41:08.451Z,11.63
2023-03-21T13:43:51.956Z,11.60
2023-03-21T13:46:40.601Z,11.35
2023-03-21T13:49:38.064Z,11.56
2023-03-21T13:52:11.132Z,11.75
2023-03-21T13:54:51.877Z,11.61
2023-03-21T13:57:46.438Z,11.70
2023-03-21T14:00:31.758Z,11.67
2023-03-21T14:03:17.618Z,11.63
2023-03-21T14:05:51.807Z,11.63
2023-03-21T14:08:31.237Z,11.65
2023-03-21T14:11:12.201Z,11.67
2023-03-21T14:13:51.179Z,11.55
2023-03-21T14:16:28.846Z,11.56
2023-03-21T14:19:06.643Z,11.67
2023-03-21T14:21:36.851Z,11.68
2023-03-21T14:24:14.268Z,12.09
2023-03-21T14:26:50.873Z,12.56
2023-03-21T14:29:32.934Z,12.40
2023-03-21T14:32:06.030Z,12.03
2023-03-21T14:34:37.653Z,12.17
2023-03-21T14:37:11.896Z,11.98
2023-03-21T14:39:41.603Z,11.78
2023-03-21T14:42:15.997Z,11.82
2023-03-21T14:44:55.316Z,11.88
2023-03-21T14:47:30.063Z,12.08
2023-03-21T14:50:03.305Z,12.19
2023-03-21T14:52:34.756Z,12.19
2023-03-21T14:55:17.007Z,12.28
2023-03-21T14:57:45.568Z,12.14
2023-03-21T15:00:27.869Z,12.16
2023-03-21T15:03:00.793Z,12.13
2023-03-21T15:05:39.656Z,12.18
2023-03-21T15:08:26.341Z,12.03
2023-03-21T15:11:08.768Z,12.27
2023-03-21T15:13:55.172Z,12.27
2023-03-21T15:16:23.842Z,12.40
2023-03-21T15:18:54.712Z,12.22
2023-03-21T15:21:48.520Z,12.12
2023-03-21T15:24:34.112Z,11.94
2023-03-21T15:27:14.165Z,11.79
2023-03-21T15:29:46.465Z,11.66
2023-03-21T15:32:24.644Z,11.68
2023-03-21T15:35:06.525Z,11.61
2023-03-21T15:37:38.349Z,11.50
2023-03-21T15:40:29.274Z,11.45
2023-03-21T15:43:19.394Z,11.69
2023-03-21T15:45:57.746Z,11.59
2023-03-21T15:48:35.276Z,11.67
2023-03-21T15:51:25.982Z,11.63
2023-03-21T15:53:56.573Z,11.51
2023-03-21T15:56:34.215Z,11.46
2023-03-21T15:59:05.785Z,11.39
2023-03-21T16:01:39.238Z,11.34
2023-03-21T16:04:14.801Z,11.44
2023-03-21T16:07:17.179Z,11.36
2023-03-21T16:09:47.573Z,11.31
2023-03-21T16:12:18.923Z,11.33
2023-03-21T16:14:49.302Z,11.38
2023-03-21T16:17:39.795Z,11.40
2023-03-21T16:20:26.909Z,11.31
2023-03-21T16:22:57.131Z,11.24
2023-03-21T16:25:30.981Z,11.15
2023-03-21T16:28:01.095Z,11.26
2023-03-21T16:30:31.477Z,11.30
2023-03-21T16:33:01.482Z,11.19
2023-03-21T16:35:35.251Z,11.04
2023-03-21T16:38:05.591Z,11.02
2023-03-21T16:40:43.487Z,11.00
2023-03-21T16:43:14.241Z,11.18
2023-03-21T16:45:44.427Z,11.04
2023-03-21T16:48:17.620Z,10.93
2023-03-21T16:50:48.918Z,11.03
2023-03-21T16:53:19.105Z,10.96
2023-03-21T16:55:50.475Z,10.95
2023-03-21T16:58:20.690Z,10.82
2023-03-21T17:00:50.980Z,10.73
2023-03-21T17:03:22.050Z,10.67
2023-03-21T17:05:52.171Z,10.69
2023-03-21T17:08:22.536Z,10.72
2023-03-21T17:10:53.199Z,10.80
2023-03-21T17:13:23.256Z,10.70
2023-03-21T17:15:53.360Z,10.59
2023-03-21T17:18:23.489Z,10.54
2023-03-21T17:20:53.534Z,10.52
2023-03-21T17:23:23.826Z,10.43
2023-03-21T17:25:53.839Z,10.34
2023-03-21T17:28:23.865Z,10.26
2023-03-21T17:30:54.003Z,10.23
2023-03-21T17:33:24.275Z,10.18
2023-03-21T17:35:54.496Z,10.15
2023-03-21T17:38:23.064Z,10.13
2023-03-21T17:40:51.276Z,10.08
2023-03-21T17:43:21.688Z,10.03
2023-03-21T17:45:51.291Z,9.98
2023-03-21T17:48:19.553Z,9.97
2023-03-21T17:50:48.486Z,9.93
2023-03-21T17:53:16.411Z,9.88
2023-03-21T17:55:44.696Z,9.88
2023-03-21T17:58:13.840Z,9.85
2023-03-21T18:00:41.665Z,9.77
2023-03-21T18:03:10.169Z,9.70
2023-03-21T18:05:38.508Z,9.65
2023-03-21T18:08:11.238Z,9.63
2023-03-21T18:10:43.109Z,9.60
2023-03-21T18:13:13.603Z,9.67
2023-03-21T18:15:44.676Z,9.69
2023-03-21T18:18:15.352Z,9.62
2023-03-21T18:20:52.172Z,9.58
2023-03-21T18:23:23.178Z,9.56
2023-03-21T18:25:52.669Z,9.52
2023-03-21T18:28:23.258Z,9.54
2023-03-21T18:31:08.570Z,9.59
2023-03-21T18:33:42.224Z,9.73
2023-03-21T18:36:24.525Z,9.70
2023-03-21T18:38:56.833Z,10.03
2023-03-21T18:41:27.174Z,9.95
2023-03-21T18:44:02.671Z,9.79
2023-03-21T18:46:37.407Z,9.85
2023-03-21T18:49:52.108Z,9.90
2023-03-21T18:51:58.271Z,9.79
2023-03-21T18:54:28.826Z,9.80
2023-03-21T18:57:34.974Z,9.72
2023-03-21T18:59:47.057Z,9.63
2023-03-21T19:02:17.013Z,9.58
2023-03-21T19:04:47.374Z,9.65
2023-03-21T19:07:18.418Z,9.76
2023-03-21T19:10:10.566Z,9.77
2023-03-21T19:12:37.950Z,9.75
2023-03-21T19:15:08.605Z,9.76
2023-03-21T19:18:23.182Z,9.71
2023-03-21T19:20:28.647Z,9.63
2023-03-21T19:22:58.293Z,9.55
2023-03-21T19:25:28.206Z,9.51
2023-03-21T19:27:57.837Z,9.46
2023-03-21T19:30:27.986Z,9.44
2023-03-21T19:32:58.064Z,9.41
2023-03-21T19:35:28.808Z,9.41
2023-03-21T19:37:59.100Z,9.41
2023-03-21T19:40:29.406Z,9.36
2023-03-21T19:43:10.373Z,9.32
2023-03-21T19:45:49.340Z,9.30
2023-03-21T19:48:20.928Z,9.26
2023-03-21T19:51:20.554Z,9.25
2023-03-21T19:53:41.298Z,9.23
2023-03-21T19:56:21.506Z,9.25
2023-03-21T19:58:52.880Z,9.21
2023-03-21T20:01:24.226Z,9.19
2023-03-21T20:03:54.941Z,9.20
2023-03-21T20:06:25.411Z,9.25
2023-03-21T20:09:41.453Z,9.22
2023-03-21T20:11:45.868Z,9.27
2023-03-21T20:14:14.324Z,9.21
2023-03-21T20:16:43.770Z,9.16
2023-03-21T20:19:16.349Z,9.13
2023-03-21T20:21:55.424Z,9.10
2023-03-21T20:24:28.369Z,9.07
2023-03-21T20:26:58.198Z,9.03
2023-03-21T20:30:07.643Z,8.94
2023-03-21T20:32:16.342Z,8.92
2023-03-21T20:34:46.779Z,8.92
2023-03-21T20:37:16.604Z,8.91
2023-03-21T20:39:46.787Z,8.90
2023-03-21T20:42:16.745Z,8.89
2023-03-21T20:44:58.765Z,8.88
2023-03-21T20:47:29.153Z,8.92
2023-03-21T20:49:59.806Z,8.90
2023-03-21T20:52:57.488Z,8.88
2023-03-21T20:55:22.780Z,8.85
2023-03-21T20:57:54.855Z,8.81
2023-03-21T21:00:26.550Z,8.77
2023-03-21T21:02:56.680Z,8.80
2023-03-21T21:05:31.437Z,8.77
2023-03-21T21:08:03.658Z,8.99
2023-03-21T21:10:35.025Z,8.94
2023-03-21T21:13:07.880Z,8.86
2023-03-21T21:15:37.998Z,8.83
2023-03-21T21:18:08.563Z,8.81
2023-03-21T21:20:39.030Z,8.82
2023-03-21T21:23:09.810Z,8.86
2023-03-21T21:25:39.963Z,8.77
2023-03-21T21:28:11.845Z,8.74
2023-03-21T21:30:42.908Z,8.75
2023-03-21T21:33:14.630Z,8.73
2023-03-21T21:35:50.785Z,8.70
2023-03-21T21:38:21.219Z,8.66
2023-03-21T21:40:52.384Z,8.62
2023-03-21T21:43:23.078Z,8.61
2023-03-21T21:45:54.071Z,8.69
2023-03-21T21:48:24.019Z,8.68
2023-03-21T21:50:54.686Z,8.63
2023-03-21T21:53:28.234Z,8.62
2023-03-21T21:55:57.273Z,8.60
2023-03-21T21:58:26.060Z,8.59
2023-03-21T22:01:01.966Z,8.55
2023-03-21T22:03:36.795Z,8.60
2023-03-21T22:06:10.219Z,8.60
2023-03-21T22:08:47.077Z,8.60
2023-03-21T22:11:21.669Z,8.64
2023-03-21T22:13:51.762Z,8.98
2023-03-21T22:16:20.143Z,8.81
2023-03-21T22:18:48.589Z,8.69
2023-03-21T22:21:17.036Z,8.63
2023-03-21T22:23:48.067Z,8.59
2023-03-21T22:26:18.247Z,8.50
2023-03-21T22:28:48.421Z,8.43
2023-03-21T22:31:18.393Z,8.42
2023-03-21T22:33:49.291Z,8.42
2023-03-21T22:36:20.201Z,8.37
2023-03-21T22:38:50.309Z,8.36
2023-03-21T22:41:20.003Z,8.35
2023-03-21T22:43:49.943Z,8.44
2023-03-21T22:46:22.393Z,8.43
2023-03-21T22:48:53.929Z,8.37
2023-03-21T22:51:23.981Z,8.36
2023-03-21T22:53:54.382Z,8.34
2023-03-21T22:56:24.085Z,8.35
2023-03-21T22:58:54.284Z,8.45
2023-03-21T23:01:24.354Z,8.37
2023-03-21T23:03:54.120Z,8.33
2023-03-21T23:06:23.945Z,8.29
2023-03-21T23:08:53.744Z,8.37
2023-03-21T23:11:23.646Z,8.33
2023-03-21T23:14:07.204Z,8.47
2023-03-21T23:16:38.533Z,8.38
2023-03-21T23:19:10.443Z,8.37
2023-03-21T23:21:40.520Z,8.42
2023-03-21T23:24:11.854Z,8.39
2023-03-21T23:26:43.036Z,8.36
2023-03-21T23:29:12.391Z,8.30
2023-03-21T23:31:42.274Z,8.26
2023-03-21T23:34:13.273Z,8.23
2023-03-21T23:36:43.495Z,8.22
2023-03-21T23:39:16.718Z,8.19
2023-03-21T23:41:46.506Z,8.15
2023-03-21T23:44:15.467Z,8.18
2023-03-21T23:46:46.160Z,8.22
2023-03-21T23:49:15.379Z,8.27
2023-03-21T23:51:43.037Z,8.30
2023-03-21T23:54:11.444Z,8.29
2023-03-21T23:56:39.861Z,8.25
2023-03-21T23:59:08.742Z,8.09
